sensor_id;sensor_type;location;lat;lon;timestamp;P1;durP1;ratioP1;P2;durP2;ratioP2
30068;SDS011;16894;49.456;10.644;2023-03-19T00:02:12;15.90;;;8.63;;
30068;SDS011;16894;49.456;10.644;2023-03-19T00:04:38;17.27;;;8.90;;
30068;SDS011;16894;49.456;10.644;2023-03-19T00:07:04;24.48;;;10.00;;
30068;SDS011;16894;49.456;10.644;2023-03-19T00:09:30;18.53;;;8.53;;
30068;SDS011;16894;49.456;10.644;2023-03-19T00:11:55;12.55;;;8.27;;
30068;SDS011;16894;49.456;10.644;2023-03-19T00:14:21;18.20;;;10.68;;
30068;SDS011;16894;49.456;10.644;2023-03-19T00:16:47;11.13;;;7.33;;
30068;SDS011;16894;49.456;10.644;2023-03-19T00:19:13;13.60;;;7.47;;
30068;SDS011;16894;49.456;10.644;2023-03-19T00:21:38;22.92;;;7.30;;
30068;SDS011;16894;49.456;10.644;2023-03-19T00:24:04;10.95;;;8.05;;
30068;SDS011;16894;49.456;10.644;2023-03-19T00:26:30;23.17;;;8.85;;
30068;SDS011;16894;49.456;10.644;2023-03-19T00:28:58;18.25;;;7.80;;
30068;SDS011;16894;49.456;10.644;2023-03-19T00:31:24;13.63;;;6.70;;
30068;SDS011;16894;49.456;10.644;2023-03-19T00:33:51;12.68;;;8.45;;
30068;SDS011;16894;49.456;10.644;2023-03-19T00:36:17;13.73;;;8.25;;
30068;SDS011;16894;49.456;10.644;2023-03-19T00:38:44;15.60;;;6.97;;
30068;SDS011;16894;49.456;10.644;2023-03-19T00:41:10;13.63;;;7.28;;
30068;SDS011;16894;49.456;10.644;2023-03-19T00:43:36;13.80;;;6.78;;
30068;SDS011;16894;49.456;10.644;2023-03-19T00:46:03;16.73;;;7.32;;
30068;SDS011;16894;49.456;10.644;2023-03-19T00:48:28;12.73;;;7.28;;
30068;SDS011;16894;49.456;10.644;2023-03-19T00:50:54;12.00;;;6.53;;
30068;SDS011;16894;49.456;10.644;2023-03-19T00:53:20;15.93;;;8.95;;
30068;SDS011;16894;49.456;10.644;2023-03-19T00:55:46;15.40;;;8.73;;
30068;SDS011;16894;49.456;10.644;2023-03-19T00:58:12;16.63;;;8.87;;
30068;SDS011;16894;49.456;10.644;2023-03-19T01:00:37;19.50;;;8.50;;
30068;SDS011;16894;49.456;10.644;2023-03-19T01:03:04;13.57;;;8.15;;
30068;SDS011;16894;49.456;10.644;2023-03-19T01:05:31;18.13;;;6.93;;
30068;SDS011;16894;49.456;10.644;2023-03-19T01:07:58;15.52;;;7.80;;
30068;SDS011;16894;49.456;10.644;2023-03-19T01:10:24;14.57;;;7.20;;
30068;SDS011;16894;49.456;10.644;2023-03-19T01:12:50;13.00;;;6.93;;
30068;SDS011;16894;49.456;10.644;2023-03-19T01:15:16;16.77;;;7.87;;
30068;SDS011;16894;49.456;10.644;2023-03-19T01:17:42;13.27;;;7.18;;
30068;SDS011;16894;49.456;10.644;2023-03-19T01:20:09;17.67;;;8.80;;
30068;SDS011;16894;49.456;10.644;2023-03-19T01:22:38;14.77;;;6.93;;
30068;SDS011;16894;49.456;10.644;2023-03-19T01:25:05;18.30;;;7.93;;
30068;SDS011;16894;49.456;10.644;2023-03-19T01:27:32;13.70;;;8.30;;
30068;SDS011;16894;49.456;10.644;2023-03-19T01:29:57;14.00;;;8.93;;
30068;SDS011;16894;49.456;10.644;2023-03-19T01:32:23;16.03;;;8.60;;
30068;SDS011;16894;49.456;10.644;2023-03-19T01:34:49;21.23;;;9.00;;
30068;SDS011;16894;49.456;10.644;2023-03-19T01:37:15;14.48;;;8.77;;
30068;SDS011;16894;49.456;10.644;2023-03-19T01:39:40;14.97;;;9.10;;
30068;SDS011;16894;49.456;10.644;2023-03-19T01:42:06;13.97;;;8.27;;
30068;SDS011;16894;49.456;10.644;2023-03-19T01:44:33;16.52;;;8.63;;
30068;SDS011;16894;49.456;10.644;2023-03-19T01:47:02;11.77;;;7.88;;
30068;SDS011;16894;49.456;10.644;2023-03-19T01:49:31;18.20;;;8.02;;
30068;SDS011;16894;49.456;10.644;2023-03-19T01:51:58;19.58;;;9.20;;
30068;SDS011;16894;49.456;10.644;2023-03-19T01:54:27;16.33;;;8.95;;
30068;SDS011;16894;49.456;10.644;2023-03-19T01:56:57;16.75;;;10.15;;
30068;SDS011;16894;49.456;10.644;2023-03-19T01:59:30;14.63;;;7.97;;
30068;SDS011;16894;49.456;10.644;2023-03-19T02:02:04;13.93;;;9.07;;
30068;SDS011;16894;49.456;10.644;2023-03-19T02:04:50;17.63;;;9.77;;
30068;SDS011;16894;49.456;10.644;2023-03-19T02:07:20;20.27;;;8.98;;
30068;SDS011;16894;49.456;10.644;2023-03-19T02:09:46;15.60;;;8.77;;
30068;SDS011;16894;49.456;10.644;2023-03-19T02:12:12;16.15;;;9.70;;
30068;SDS011;16894;49.456;10.644;2023-03-19T02:17:04;16.85;;;10.35;;
30068;SDS011;16894;49.456;10.644;2023-03-19T02:22:24;11.10;;;8.38;;
30068;SDS011;16894;49.456;10.644;2023-03-19T02:25:03;17.75;;;9.18;;
30068;SDS011;16894;49.456;10.644;2023-03-19T02:27:39;15.90;;;9.50;;
30068;SDS011;16894;49.456;10.644;2023-03-19T02:30:18;17.58;;;10.35;;
30068;SDS011;16894;49.456;10.644;2023-03-19T02:32:45;15.95;;;9.32;;
30068;SDS011;16894;49.456;10.644;2023-03-19T02:35:10;16.73;;;9.65;;
30068;SDS011;16894;49.456;10.644;2023-03-19T02:37:36;14.40;;;11.02;;
30068;SDS011;16894;49.456;10.644;2023-03-19T02:40:03;24.13;;;10.63;;
30068;SDS011;16894;49.456;10.644;2023-03-19T02:42:33;15.57;;;10.18;;
30068;SDS011;16894;49.456;10.644;2023-03-19T02:44:59;20.65;;;10.82;;
30068;SDS011;16894;49.456;10.644;2023-03-19T02:47:25;14.40;;;10.00;;
30068;SDS011;16894;49.456;10.644;2023-03-19T02:52:17;17.55;;;10.27;;
30068;SDS011;16894;49.456;10.644;2023-03-19T02:54:43;18.13;;;11.05;;
30068;SDS011;16894;49.456;10.644;2023-03-19T02:57:08;18.93;;;11.20;;
30068;SDS011;16894;49.456;10.644;2023-03-19T02:59:34;17.88;;;12.18;;
30068;SDS011;16894;49.456;10.644;2023-03-19T03:02:00;18.02;;;12.25;;
30068;SDS011;16894;49.456;10.644;2023-03-19T03:04:26;19.63;;;13.40;;
30068;SDS011;16894;49.456;10.644;2023-03-19T03:06:51;23.00;;;13.07;;
30068;SDS011;16894;49.456;10.644;2023-03-19T03:09:17;19.00;;;12.97;;
30068;SDS011;16894;49.456;10.644;2023-03-19T03:11:43;24.52;;;13.38;;
30068;SDS011;16894;49.456;10.644;2023-03-19T03:14:09;20.98;;;13.45;;
30068;SDS011;16894;49.456;10.644;2023-03-19T03:16:35;18.80;;;13.52;;
30068;SDS011;16894;49.456;10.644;2023-03-19T03:19:01;18.85;;;13.38;;
30068;SDS011;16894;49.456;10.644;2023-03-19T03:21:28;18.60;;;12.80;;
30068;SDS011;16894;49.456;10.644;2023-03-19T03:23:53;21.27;;;13.17;;
30068;SDS011;16894;49.456;10.644;2023-03-19T03:26:19;17.60;;;12.33;;
30068;SDS011;16894;49.456;10.644;2023-03-19T03:28:45;22.13;;;12.75;;
30068;SDS011;16894;49.456;10.644;2023-03-19T03:31:11;16.20;;;12.98;;
30068;SDS011;16894;49.456;10.644;2023-03-19T03:33:37;18.75;;;12.50;;
30068;SDS011;16894;49.456;10.644;2023-03-19T03:36:03;20.70;;;12.38;;
30068;SDS011;16894;49.456;10.644;2023-03-19T03:38:29;19.10;;;12.65;;
30068;SDS011;16894;49.456;10.644;2023-03-19T03:40:56;19.65;;;10.93;;
30068;SDS011;16894;49.456;10.644;2023-03-19T03:43:22;16.63;;;12.25;;
30068;SDS011;16894;49.456;10.644;2023-03-19T03:45:49;23.50;;;13.88;;
30068;SDS011;16894;49.456;10.644;2023-03-19T03:48:15;22.83;;;12.52;;
30068;SDS011;16894;49.456;10.644;2023-03-19T03:50:41;19.05;;;12.63;;
30068;SDS011;16894;49.456;10.644;2023-03-19T03:53:07;17.48;;;11.77;;
30068;SDS011;16894;49.456;10.644;2023-03-19T03:58:00;14.57;;;10.77;;
30068;SDS011;16894;49.456;10.644;2023-03-19T04:00:27;13.90;;;10.38;;
30068;SDS011;16894;49.456;10.644;2023-03-19T04:02:53;16.27;;;11.88;;
30068;SDS011;16894;49.456;10.644;2023-03-19T04:05:19;18.53;;;11.63;;
30068;SDS011;16894;49.456;10.644;2023-03-19T04:07:44;17.35;;;11.52;;
30068;SDS011;16894;49.456;10.644;2023-03-19T04:10:11;14.20;;;10.40;;
30068;SDS011;16894;49.456;10.644;2023-03-19T04:12:37;19.33;;;11.20;;
30068;SDS011;16894;49.456;10.644;2023-03-19T04:15:04;16.75;;;11.10;;
30068;SDS011;16894;49.456;10.644;2023-03-19T04:17:31;14.63;;;10.43;;
30068;SDS011;16894;49.456;10.644;2023-03-19T04:19:57;15.90;;;9.50;;
30068;SDS011;16894;49.456;10.644;2023-03-19T04:22:23;13.20;;;10.30;;
30068;SDS011;16894;49.456;10.644;2023-03-19T04:24:49;22.33;;;11.90;;
30068;SDS011;16894;49.456;10.644;2023-03-19T04:27:14;14.17;;;10.80;;
30068;SDS011;16894;49.456;10.644;2023-03-19T04:29:40;18.73;;;9.03;;
30068;SDS011;16894;49.456;10.644;2023-03-19T04:32:05;17.87;;;10.33;;
30068;SDS011;16894;49.456;10.644;2023-03-19T04:34:32;16.15;;;9.55;;
30068;SDS011;16894;49.456;10.644;2023-03-19T04:36:57;18.67;;;11.65;;
30068;SDS011;16894;49.456;10.644;2023-03-19T04:39:23;15.77;;;10.93;;
30068;SDS011;16894;49.456;10.644;2023-03-19T04:41:49;15.20;;;10.25;;
30068;SDS011;16894;49.456;10.644;2023-03-19T04:44:15;25.02;;;12.55;;
30068;SDS011;16894;49.456;10.644;2023-03-19T04:46:41;17.75;;;11.18;;
30068;SDS011;16894;49.456;10.644;2023-03-19T04:49:09;20.88;;;12.05;;
30068;SDS011;16894;49.456;10.644;2023-03-19T04:51:35;21.00;;;11.63;;
30068;SDS011;16894;49.456;10.644;2023-03-19T04:54:00;17.93;;;11.93;;
30068;SDS011;16894;49.456;10.644;2023-03-19T04:56:26;14.40;;;12.37;;
30068;SDS011;16894;49.456;10.644;2023-03-19T04:58:52;16.00;;;13.10;;
30068;SDS011;16894;49.456;10.644;2023-03-19T05:01:18;13.38;;;10.57;;
30068;SDS011;16894;49.456;10.644;2023-03-19T05:03:44;15.13;;;11.27;;
30068;SDS011;16894;49.456;10.644;2023-03-19T05:06:09;16.27;;;12.53;;
30068;SDS011;16894;49.456;10.644;2023-03-19T05:08:35;18.08;;;11.68;;
30068;SDS011;16894;49.456;10.644;2023-03-19T05:11:01;18.70;;;11.73;;
30068;SDS011;16894;49.456;10.644;2023-03-19T05:13:27;15.90;;;13.23;;
30068;SDS011;16894;49.456;10.644;2023-03-19T05:15:53;19.57;;;12.63;;
30068;SDS011;16894;49.456;10.644;2023-03-19T05:18:19;17.00;;;12.25;;
30068;SDS011;16894;49.456;10.644;2023-03-19T05:20:45;17.55;;;12.20;;
30068;SDS011;16894;49.456;10.644;2023-03-19T05:23:11;17.27;;;11.75;;
30068;SDS011;16894;49.456;10.644;2023-03-19T05:25:37;15.45;;;10.60;;
30068;SDS011;16894;49.456;10.644;2023-03-19T05:28:04;13.38;;;9.48;;
30068;SDS011;16894;49.456;10.644;2023-03-19T05:30:31;12.40;;;7.38;;
30068;SDS011;16894;49.456;10.644;2023-03-19T05:32:58;11.70;;;7.85;;
30068;SDS011;16894;49.456;10.644;2023-03-19T05:35:24;12.00;;;6.47;;
30068;SDS011;16894;49.456;10.644;2023-03-19T05:37:52;12.18;;;6.63;;
30068;SDS011;16894;49.456;10.644;2023-03-19T05:40:18;15.27;;;7.00;;
30068;SDS011;16894;49.456;10.644;2023-03-19T05:42:44;9.60;;;6.22;;
30068;SDS011;16894;49.456;10.644;2023-03-19T05:45:10;10.85;;;5.95;;
30068;SDS011;16894;49.456;10.644;2023-03-19T05:47:35;14.50;;;7.60;;
30068;SDS011;16894;49.456;10.644;2023-03-19T05:50:01;12.43;;;7.90;;
30068;SDS011;16894;49.456;10.644;2023-03-19T05:52:27;18.42;;;7.55;;
30068;SDS011;16894;49.456;10.644;2023-03-19T05:54:52;12.10;;;8.13;;
30068;SDS011;16894;49.456;10.644;2023-03-19T05:57:18;11.53;;;6.43;;
30068;SDS011;16894;49.456;10.644;2023-03-19T05:59:44;11.05;;;8.32;;
30068;SDS011;16894;49.456;10.644;2023-03-19T06:02:10;13.03;;;6.87;;
30068;SDS011;16894;49.456;10.644;2023-03-19T06:04:35;10.63;;;7.33;;
30068;SDS011;16894;49.456;10.644;2023-03-19T06:07:01;13.47;;;6.60;;
30068;SDS011;16894;49.456;10.644;2023-03-19T06:09:28;13.85;;;7.00;;
30068;SDS011;16894;49.456;10.644;2023-03-19T06:11:53;12.40;;;6.47;;
30068;SDS011;16894;49.456;10.644;2023-03-19T06:14:19;23.77;;;7.37;;
30068;SDS011;16894;49.456;10.644;2023-03-19T06:16:45;11.73;;;6.37;;
30068;SDS011;16894;49.456;10.644;2023-03-19T06:19:10;15.27;;;5.90;;
30068;SDS011;16894;49.456;10.644;2023-03-19T06:21:36;17.93;;;7.20;;
30068;SDS011;16894;49.456;10.644;2023-03-19T06:24:02;13.07;;;7.40;;
30068;SDS011;16894;49.456;10.644;2023-03-19T06:26:27;11.13;;;6.60;;
30068;SDS011;16894;49.456;10.644;2023-03-19T06:28:53;18.50;;;6.90;;
30068;SDS011;16894;49.456;10.644;2023-03-19T06:31:19;16.60;;;8.23;;
30068;SDS011;16894;49.456;10.644;2023-03-19T06:33:45;10.95;;;5.60;;
30068;SDS011;16894;49.456;10.644;2023-03-19T06:36:11;13.77;;;6.97;;
30068;SDS011;16894;49.456;10.644;2023-03-19T06:38:36;13.97;;;6.47;;
30068;SDS011;16894;49.456;10.644;2023-03-19T06:41:02;8.67;;;7.40;;
30068;SDS011;16894;49.456;10.644;2023-03-19T06:43:28;12.27;;;8.05;;
30068;SDS011;16894;49.456;10.644;2023-03-19T06:45:54;19.97;;;7.67;;
30068;SDS011;16894;49.456;10.644;2023-03-19T06:48:19;16.27;;;8.50;;
30068;SDS011;16894;49.456;10.644;2023-03-19T06:50:45;15.40;;;6.97;;
30068;SDS011;16894;49.456;10.644;2023-03-19T06:53:11;15.60;;;7.63;;
30068;SDS011;16894;49.456;10.644;2023-03-19T06:55:38;14.55;;;8.13;;
30068;SDS011;16894;49.456;10.644;2023-03-19T06:58:04;10.35;;;6.85;;
30068;SDS011;16894;49.456;10.644;2023-03-19T07:00:29;13.00;;;7.03;;
30068;SDS011;16894;49.456;10.644;2023-03-19T07:02:55;11.50;;;6.40;;
30068;SDS011;16894;49.456;10.644;2023-03-19T07:05:21;9.17;;;6.43;;
30068;SDS011;16894;49.456;10.644;2023-03-19T07:07:46;10.40;;;6.53;;
30068;SDS011;16894;49.456;10.644;2023-03-19T07:10:12;15.83;;;7.40;;
30068;SDS011;16894;49.456;10.644;2023-03-19T07:12:38;9.80;;;6.97;;
30068;SDS011;16894;49.456;10.644;2023-03-19T07:15:03;19.10;;;12.20;;
30068;SDS011;16894;49.456;10.644;2023-03-19T07:17:29;10.40;;;6.75;;
30068;SDS011;16894;49.456;10.644;2023-03-19T07:19:55;13.80;;;7.63;;
30068;SDS011;16894;49.456;10.644;2023-03-19T07:22:21;15.53;;;7.17;;
30068;SDS011;16894;49.456;10.644;2023-03-19T07:24:46;19.50;;;6.60;;
30068;SDS011;16894;49.456;10.644;2023-03-19T07:27:12;14.38;;;7.43;;
30068;SDS011;16894;49.456;10.644;2023-03-19T07:29:38;8.73;;;5.97;;
30068;SDS011;16894;49.456;10.644;2023-03-19T07:32:04;13.85;;;7.10;;
30068;SDS011;16894;49.456;10.644;2023-03-19T07:34:30;12.20;;;7.15;;
30068;SDS011;16894;49.456;10.644;2023-03-19T07:36:55;9.80;;;7.67;;
30068;SDS011;16894;49.456;10.644;2023-03-19T07:39:21;11.20;;;8.20;;
30068;SDS011;16894;49.456;10.644;2023-03-19T07:41:47;11.32;;;10.05;;
30068;SDS011;16894;49.456;10.644;2023-03-19T07:44:13;16.67;;;11.17;;
30068;SDS011;16894;49.456;10.644;2023-03-19T07:46:40;12.20;;;10.15;;
30068;SDS011;16894;49.456;10.644;2023-03-19T07:49:06;14.90;;;13.45;;
30068;SDS011;16894;49.456;10.644;2023-03-19T07:51:32;12.30;;;10.77;;
30068;SDS011;16894;49.456;10.644;2023-03-19T07:53:58;13.25;;;11.40;;
30068;SDS011;16894;49.456;10.644;2023-03-19T07:56:24;12.48;;;9.93;;
30068;SDS011;16894;49.456;10.644;2023-03-19T07:58:49;18.13;;;13.17;;
30068;SDS011;16894;49.456;10.644;2023-03-19T08:01:16;17.20;;;11.98;;
30068;SDS011;16894;49.456;10.644;2023-03-19T08:03:42;29.20;;;14.38;;
30068;SDS011;16894;49.456;10.644;2023-03-19T08:06:08;18.83;;;12.20;;
30068;SDS011;16894;49.456;10.644;2023-03-19T08:08:34;12.15;;;9.13;;
30068;SDS011;16894;49.456;10.644;2023-03-19T08:11:00;10.50;;;7.63;;
30068;SDS011;16894;49.456;10.644;2023-03-19T08:13:26;11.85;;;7.28;;
30068;SDS011;16894;49.456;10.644;2023-03-19T08:15:52;33.47;;;17.63;;
30068;SDS011;16894;49.456;10.644;2023-03-19T08:18:18;40.40;;;20.47;;
30068;SDS011;16894;49.456;10.644;2023-03-19T08:20:44;58.85;;;27.33;;
30068;SDS011;16894;49.456;10.644;2023-03-19T08:23:11;28.55;;;19.02;;
30068;SDS011;16894;49.456;10.644;2023-03-19T08:28:03;22.38;;;16.83;;
30068;SDS011;16894;49.456;10.644;2023-03-19T08:30:29;34.17;;;21.45;;
30068;SDS011;16894;49.456;10.644;2023-03-19T08:32:55;23.92;;;17.30;;
30068;SDS011;16894;49.456;10.644;2023-03-19T08:35:21;19.55;;;14.10;;
30068;SDS011;16894;49.456;10.644;2023-03-19T08:37:47;15.30;;;13.40;;
30068;SDS011;16894;49.456;10.644;2023-03-19T08:40:13;24.53;;;13.80;;
30068;SDS011;16894;49.456;10.644;2023-03-19T08:42:39;21.13;;;12.53;;
30068;SDS011;16894;49.456;10.644;2023-03-19T08:45:07;24.10;;;16.33;;
30068;SDS011;16894;49.456;10.644;2023-03-19T08:47:34;27.35;;;17.58;;
30068;SDS011;16894;49.456;10.644;2023-03-19T08:50:00;37.90;;;21.20;;
30068;SDS011;16894;49.456;10.644;2023-03-19T08:52:25;26.95;;;18.23;;
30068;SDS011;16894;49.456;10.644;2023-03-19T08:54:51;26.17;;;19.40;;
30068;SDS011;16894;49.456;10.644;2023-03-19T08:57:17;37.13;;;24.37;;
30068;SDS011;16894;49.456;10.644;2023-03-19T08:59:42;45.43;;;28.20;;
30068;SDS011;16894;49.456;10.644;2023-03-19T09:02:09;47.10;;;28.40;;
30068;SDS011;16894;49.456;10.644;2023-03-19T09:04:38;38.83;;;23.40;;
30068;SDS011;16894;49.456;10.644;2023-03-19T09:07:07;29.73;;;19.27;;
30068;SDS011;16894;49.456;10.644;2023-03-19T09:09:37;31.17;;;21.70;;
30068;SDS011;16894;49.456;10.644;2023-03-19T09:12:04;34.03;;;17.23;;
30068;SDS011;16894;49.456;10.644;2023-03-19T09:14:31;21.60;;;14.35;;
30068;SDS011;16894;49.456;10.644;2023-03-19T09:16:57;14.10;;;11.38;;
30068;SDS011;16894;49.456;10.644;2023-03-19T09:19:23;16.00;;;11.20;;
30068;SDS011;16894;49.456;10.644;2023-03-19T09:21:50;16.05;;;10.25;;
30068;SDS011;16894;49.456;10.644;2023-03-19T09:24:16;11.13;;;9.77;;
30068;SDS011;16894;49.456;10.644;2023-03-19T09:26:45;28.50;;;15.90;;
30068;SDS011;16894;49.456;10.644;2023-03-19T09:29:11;36.90;;;23.33;;
30068;SDS011;16894;49.456;10.644;2023-03-19T09:31:37;30.67;;;17.92;;
30068;SDS011;16894;49.456;10.644;2023-03-19T09:34:03;15.40;;;11.35;;
30068;SDS011;16894;49.456;10.644;2023-03-19T09:36:31;16.38;;;10.90;;
30068;SDS011;16894;49.456;10.644;2023-03-19T09:38:56;17.95;;;9.23;;
30068;SDS011;16894;49.456;10.644;2023-03-19T09:41:26;12.57;;;7.78;;
30068;SDS011;16894;49.456;10.644;2023-03-19T09:44:13;17.27;;;11.32;;
30068;SDS011;16894;49.456;10.644;2023-03-19T09:49:45;20.40;;;9.10;;
30068;SDS011;16894;49.456;10.644;2023-03-19T09:54:56;10.15;;;6.22;;
30068;SDS011;16894;49.456;10.644;2023-03-19T09:57:27;19.25;;;11.57;;
30068;SDS011;16894;49.456;10.644;2023-03-19T09:59:54;23.58;;;15.55;;
30068;SDS011;16894;49.456;10.644;2023-03-19T10:07:48;33.83;;;22.35;;
30068;SDS011;16894;49.456;10.644;2023-03-19T10:15:44;20.58;;;11.48;;
30068;SDS011;16894;49.456;10.644;2023-03-19T10:18:11;15.65;;;11.65;;
30068;SDS011;16894;49.456;10.644;2023-03-19T10:20:46;16.85;;;9.35;;
30068;SDS011;16894;49.456;10.644;2023-03-19T10:23:31;42.00;;;25.92;;
30068;SDS011;16894;49.456;10.644;2023-03-19T10:26:07;16.35;;;9.90;;
30068;SDS011;16894;49.456;10.644;2023-03-19T10:28:36;18.98;;;9.30;;
30068;SDS011;16894;49.456;10.644;2023-03-19T10:31:13;12.65;;;9.75;;
30068;SDS011;16894;49.456;10.644;2023-03-19T10:36:18;19.67;;;12.95;;
30068;SDS011;16894;49.456;10.644;2023-03-19T10:38:46;25.83;;;11.90;;
30068;SDS011;16894;49.456;10.644;2023-03-19T10:41:17;26.77;;;16.33;;
30068;SDS011;16894;49.456;10.644;2023-03-19T10:44:06;14.80;;;9.73;;
30068;SDS011;16894;49.456;10.644;2023-03-19T10:46:40;12.23;;;7.80;;
30068;SDS011;16894;49.456;10.644;2023-03-19T10:49:12;17.77;;;8.90;;
